Time,TemperatureF,DewpointF,PressureIn,WindDirection,WindDirectionDegrees,WindSpeedMPH,WindSpeedGustMPH,Humidity,HourlyPrecipIn,Conditions,Clouds,dailyrainin,SoftwareType,DateUTC
2013-01-03 00:02:00,37.9,35.2,30.20,NNE,23,4.0,-999.0,90,0.00,,,0.00,Wunderground v.1.15,2013-01-03 05:02:00,
2013-01-03 00:07:00,37.9,35.2,30.20,NNE,23,4.0,-999.0,90,0.00,,,0.00,Wunderground v.1.15,2013-01-03 05:07:00,
2013-01-03 00:12:00,37.9,35.2,30.20,NNE,23,4.0,-999.0,90,0.00,,,0.00,Wunderground v.1.15,2013-01-03 05:12:00,
2013-01-03 00:17:00,37.9,35.2,30.20,NNE,23,4.0,-999.0,90,0.00,,,0.00,Wunderground v.1.15,2013-01-03 05:17:00,
2013-01-03 00:22:00,37.9,35.2,30.20,NNE,23,4.0,-999.0,90,0.00,,,0.00,Wunderground v.1.15,2013-01-03 05:22:00,
2013-01-03 00:27:00,37.8,34.8,30.19,NE,45,4.0,-999.0,89,0.00,,,0.00,Wunderground v.1.15,2013-01-03 05:27:00,
2013-01-03 00:32:00,37.8,34.8,30.19,NE,45,4.0,-999.0,89,0.00,,,0.00,Wunderground v.1.15,2013-01-03 05:32:00,
2013-01-03 00:37:00,37.8,34.8,30.19,NE,45,4.0,-999.0,89,0.00,,,0.00,Wunderground v.1.15,2013-01-03 05:37:00,
2013-01-03 00:42:00,37.8,34.8,30.18,ENE,68,1.0,-999.0,89,0.00,,,0.00,Wunderground v.1.15,2013-01-03 05:42:00,
2013-01-03 00:47:00,37.8,34.8,30.18,ENE,68,1.0,-999.0,89,0.00,,,0.00,Wunderground v.1.15,2013-01-03 05:47:00,
2013-01-03 00:52:00,37.8,34.8,30.18,ENE,68,1.0,-999.0,89,0.00,,,0.00,Wunderground v.1.15,2013-01-03 05:52:00,
2013-01-03 00:57:00,37.7,34.8,30.18,NE,45,2.0,-999.0,89,0.00,,,0.00,Wunderground v.1.15,2013-01-03 05:57:00,
2013-01-03 01:02:00,37.7,34.8,30.18,NE,45,2.0,-999.0,89,0.00,,,0.00,Wunderground v.1.15,2013-01-03 06:02:00,
2013-01-03 01:07:00,37.7,34.8,30.18,NE,45,2.0,-999.0,89,0.00,,,0.00,Wunderground v.1.15,2013-01-03 06:07:00,
2013-01-03 01:12:00,37.7,34.8,30.18,NE,45,3.0,-999.0,89,0.00,,,0.00,Wunderground v.1.15,2013-01-03 06:12:00,
2013-01-03 01:17:00,37.7,34.8,30.18,NE,45,3.0,-999.0,89,0.00,,,0.00,Wunderground v.1.15,2013-01-03 06:17:00,
2013-01-03 01:22:00,37.7,34.8,30.18,NE,45,3.0,-999.0,89,0.00,,,0.00,Wunderground v.1.15,2013-01-03 06:22:00,
2013-01-03 01:27:00,37.7,34.8,30.18,ENE,68,2.0,-999.0,89,0.00,,,0.00,Wunderground v.1.15,2013-01-03 06:27:00,
2013-01-03 01:32:00,37.7,34.8,30.18,ENE,68,2.0,-999.0,89,0.00,,,0.00,Wunderground v.1.15,2013-01-03 06:32:00,
2013-01-03 01:37:00,37.7,34.8,30.18,ENE,68,2.0,-999.0,89,0.00,,,0.00,Wunderground v.1.15,2013-01-03 06:37:00,
2013-01-03 01:42:00,37.6,34.7,30.18,NE,45,3.0,-999.0,89,0.00,,,0.00,Wunderground v.1.15,2013-01-03 06:42:00,
2013-01-03 01:47:00,37.6,34.7,30.18,NE,45,3.0,-999.0,89,0.00,,,0.00,Wunderground v.1.15,2013-01-03 06:47:00,
2013-01-03 01:52:00,37.6,34.7,30.18,NE,45,3.0,-999.0,89,0.00,,,0.00,Wunderground v.1.15,2013-01-03 06:52:00,
2013-01-03 01:57:00,37.6,34.7,30.18,NE,45,2.0,-999.0,89,0.00,,,0.00,Wunderground v.1.15,2013-01-03 06:57:00,
2013-01-03 02:02:00,37.6,34.7,30.18,NE,45,2.0,-999.0,89,0.00,,,0.00,Wunderground v.1.15,2013-01-03 07:02:00,
2013-01-03 02:07:00,37.6,34.7,30.18,NE,45,2.0,-999.0,89,0.00,,,0.00,Wunderground v.1.15,2013-01-03 07:07:00,
2013-01-03 02:12:00,37.5,34.8,30.18,NE,45,2.0,-999.0,90,0.00,,,0.00,Wunderground v.1.15,2013-01-03 07:12:00,
2013-01-03 02:17:00,37.5,34.8,30.18,NE,45,2.0,-999.0,90,0.00,,,0.00,Wunderground v.1.15,2013-01-03 07:17:00,
2013-01-03 02:22:00,37.5,34.8,30.18,NE,45,2.0,-999.0,90,0.00,,,0.00,Wunderground v.1.15,2013-01-03 07:22:00,
2013-01-03 02:27:00,37.4,34.7,30.18,NE,45,2.0,-999.0,90,0.00,,,0.00,Wunderground v.1.15,2013-01-03 07:27:00,
2013-01-03 02:32:00,37.4,34.7,30.18,NE,45,2.0,-999.0,90,0.00,,,0.00,Wunderground v.1.15,2013-01-03 07:32:00,
2013-01-03 02:37:00,37.4,34.7,30.18,NE,45,2.0,-999.0,90,0.00,,,0.00,Wunderground v.1.15,2013-01-03 07:37:00,
2013-01-03 02:42:00,37.3,34.6,30.18,NE,45,2.0,-999.0,90,0.00,,,0.00,Wunderground v.1.15,2013-01-03 07:42:00,
2013-01-03 02:47:00,37.3,34.6,30.18,NE,45,2.0,-999.0,90,0.00,,,0.00,Wunderground v.1.15,2013-01-03 07:47:00,
2013-01-03 02:52:00,37.3,34.6,30.18,NE,45,2.0,-999.0,90,0.00,,,0.00,Wunderground v.1.15,2013-01-03 07:52:00,
2013-01-03 02:57:00,37.3,34.6,30.19,NE,45,2.0,-999.0,90,0.00,,,0.00,Wunderground v.1.15,2013-01-03 07:57:00,
2013-01-03 03:02:00,37.3,34.6,30.19,NE,45,2.0,-999.0,90,0.00,,,0.00,Wunderground v.1.15,2013-01-03 08:02:00,
2013-01-03 03:07:00,37.3,34.6,30.19,NE,45,2.0,-999.0,90,0.00,,,0.00,Wunderground v.1.15,2013-01-03 08:07:00,
2013-01-03 03:12:00,37.2,34.5,30.19,NE,45,3.0,-999.0,90,0.00,,,0.00,Wunderground v.1.15,2013-01-03 08:12:00,
2013-01-03 03:17:00,37.2,34.5,30.19,NE,45,3.0,-999.0,90,0.00,,,0.00,Wunderground v.1.15,2013-01-03 08:17:00,
2013-01-03 03:22:00,37.2,34.5,30.19,NE,45,3.0,-999.0,90,0.00,,,0.00,Wunderground v.1.15,2013-01-03 08:22:00,
2013-01-03 03:27:00,37.2,34.5,30.19,NE,45,2.0,-999.0,90,0.00,,,0.00,Wunderground v.1.15,2013-01-03 08:27:00,
2013-01-03 03:32:00,37.2,34.5,30.19,NE,45,2.0,-999.0,90,0.00,,,0.00,Wunderground v.1.15,2013-01-03 08:32:00,
2013-01-03 03:37:00,37.2,34.5,30.19,NE,45,2.0,-999.0,90,0.00,,,0.00,Wunderground v.1.15,2013-01-03 08:37:00,
2013-01-03 03:42:00,37.0,34.3,30.19,NE,45,3.0,-999.0,90,0.00,,,0.00,Wunderground v.1.15,2013-01-03 08:42:00,
2013-01-03 03:47:00,37.0,34.3,30.19,NE,45,3.0,-999.0,90,0.00,,,0.00,Wunderground v.1.15,2013-01-03 08:47:00,
2013-01-03 03:52:00,37.0,34.3,30.19,NE,45,3.0,-999.0,90,0.00,,,0.00,Wunderground v.1.15,2013-01-03 08:52:00,
2013-01-03 03:57:00,36.9,34.2,30.19,NE,45,2.0,-999.0,90,0.00,,,0.00,Wunderground v.1.15,2013-01-03 08:57:00,
2013-01-03 04:02:00,36.9,34.2,30.19,NE,45,2.0,-999.0,90,0.00,,,0.00,Wunderground v.1.15,2013-01-03 09:02:00,
2013-01-03 04:07:00,36.9,34.2,30.19,NE,45,2.0,-999.0,90,0.00,,,0.00,Wunderground v.1.15,2013-01-03 09:07:00,
2013-01-03 04:12:00,36.9,34.2,30.19,NE,45,2.0,-999.0,90,0.00,,,0.00,Wunderground v.1.15,2013-01-03 09:12:00,
2013-01-03 04:17:00,36.9,34.2,30.19,NE,45,2.0,-999.0,90,0.00,,,0.00,Wunderground v.1.15,2013-01-03 09:17:00,
2013-01-03 04:22:00,36.9,34.2,30.19,NE,45,2.0,-999.0,90,0.00,,,0.00,Wunderground v.1.15,2013-01-03 09:22:00,
2013-01-03 04:27:00,36.7,34.0,30.20,ENE,68,1.0,-999.0,90,0.00,,,0.00,Wunderground v.1.15,2013-01-03 09:27:00,
2013-01-03 04:32:00,36.7,34.0,30.20,ENE,68,1.0,-999.0,90,0.00,,,0.00,Wunderground v.1.15,2013-01-03 09:32:00,
2013-01-03 04:37:00,36.7,34.0,30.20,ENE,68,1.0,-999.0,90,0.00,,,0.00,Wunderground v.1.15,2013-01-03 09:37:00,
2013-01-03 04:42:00,36.7,34.3,30.20,NNE,23,1.0,-999.0,91,0.00,,,0.00,Wunderground v.1.15,2013-01-03 09:42:00,
2013-01-03 04:47:00,36.7,34.3,30.20,NNE,23,1.0,-999.0,91,0.00,,,0.00,Wunderground v.1.15,2013-01-03 09:47:00,
2013-01-03 04:52:00,36.7,34.3,30.20,NNE,23,1.0,-999.0,91,0.00,,,0.00,Wunderground v.1.15,2013-01-03 09:52:00,
2013-01-03 04:57:00,36.5,34.4,30.20,NNE,23,2.0,-999.0,92,0.00,,,0.00,Wunderground v.1.15,2013-01-03 09:57:00,
2013-01-03 05:02:00,36.5,34.4,30.20,NNE,23,2.0,-999.0,92,0.00,,,0.00,Wunderground v.1.15,2013-01-03 10:02:00,
2013-01-03 05:07:00,36.5,34.4,30.20,NNE,23,2.0,-999.0,92,0.00,,,0.00,Wunderground v.1.15,2013-01-03 10:07:00,
2013-01-03 05:12:00,36.4,34.3,30.21,North,0,2.0,-999.0,92,0.00,,,0.00,Wunderground v.1.15,2013-01-03 10:12:00,
2013-01-03 05:17:00,36.4,34.3,30.21,North,0,2.0,-999.0,92,0.00,,,0.00,Wunderground v.1.15,2013-01-03 10:17:00,
2013-01-03 05:22:00,36.4,34.3,30.21,North,0,2.0,-999.0,92,0.00,,,0.00,Wunderground v.1.15,2013-01-03 10:22:00,
2013-01-03 05:27:00,36.4,34.3,30.21,NNE,23,2.0,-999.0,92,0.00,,,0.00,Wunderground v.1.15,2013-01-03 10:27:00,
2013-01-03 05:32:00,36.4,34.3,30.21,NNE,23,2.0,-999.0,92,0.00,,,0.00,Wunderground v.1.15,2013-01-03 10:32:00,
2013-01-03 05:37:00,36.4,34.3,30.21,NNE,23,2.0,-999.0,92,0.00,,,0.00,Wunderground v.1.15,2013-01-03 10:37:00,
2013-01-03 05:42:00,36.5,34.4,30.21,NNE,23,3.0,-999.0,92,0.00,,,0.00,Wunderground v.1.15,2013-01-03 10:42:00,
2013-01-03 05:47:00,36.5,34.4,30.21,NNE,23,3.0,-999.0,92,0.00,,,0.00,Wunderground v.1.15,2013-01-03 10:47:00,
2013-01-03 05:52:00,36.5,34.4,30.21,NNE,23,3.0,-999.0,92,0.00,,,0.00,Wunderground v.1.15,2013-01-03 10:52:00,
2013-01-03 05:57:00,36.5,34.4,30.22,NNE,23,3.0,-999.0,92,0.00,,,0.00,Wunderground v.1.15,2013-01-03 10:57:00,
2013-01-03 06:02:00,36.5,34.4,30.22,NNE,23,3.0,-999.0,92,0.00,,,0.00,Wunderground v.1.15,2013-01-03 11:02:00,
2013-01-03 06:07:00,36.5,34.4,30.22,NNE,23,3.0,-999.0,92,0.00,,,0.00,Wunderground v.1.15,2013-01-03 11:07:00,
2013-01-03 06:12:00,36.4,34.0,30.22,NNE,23,3.0,-999.0,91,0.00,,,0.00,Wunderground v.1.15,2013-01-03 11:12:00,
2013-01-03 06:17:00,36.4,34.0,30.22,NNE,23,3.0,-999.0,91,0.00,,,0.00,Wunderground v.1.15,2013-01-03 11:17:00,
2013-01-03 06:22:00,36.4,34.0,30.22,NNE,23,3.0,-999.0,91,0.00,,,0.00,Wunderground v.1.15,2013-01-03 11:22:00,
2013-01-03 06:27:00,36.4,33.5,30.21,NE,45,3.0,-999.0,89,0.00,,,0.00,Wunderground v.1.15,2013-01-03 11:27:00,
2013-01-03 06:32:00,36.4,33.5,30.21,NE,45,3.0,-999.0,89,0.00,,,0.00,Wunderground v.1.15,2013-01-03 11:32:00,
2013-01-03 06:37:00,36.4,33.5,30.21,NE,45,3.0,-999.0,89,0.00,,,0.00,Wunderground v.1.15,2013-01-03 11:37:00,
2013-01-03 06:42:00,36.4,33.5,30.22,NE,45,3.0,-999.0,89,0.00,,,0.00,Wunderground v.1.15,2013-01-03 11:42:00,
2013-01-03 06:47:00,36.4,33.5,30.22,NE,45,3.0,-999.0,89,0.00,,,0.00,Wunderground v.1.15,2013-01-03 11:47:00,
2013-01-03 06:52:00,36.4,33.5,30.22,NE,45,3.0,-999.0,89,0.00,,,0.00,Wunderground v.1.15,2013-01-03 11:52:00,
2013-01-03 06:57:00,36.4,33.5,30.22,NE,45,3.0,-999.0,89,0.00,,,0.00,Wunderground v.1.15,2013-01-03 11:57:00,
2013-01-03 07:02:00,36.4,33.5,30.22,NE,45,3.0,-999.0,89,0.00,,,0.00,Wunderground v.1.15,2013-01-03 12:02:00,
2013-01-03 07:07:00,36.4,33.5,30.22,NE,45,3.0,-999.0,89,0.00,,,0.00,Wunderground v.1.15,2013-01-03 12:07:00,
2013-01-03 07:12:00,36.4,33.2,30.23,NE,45,3.0,-999.0,88,0.00,,,0.00,Wunderground v.1.15,2013-01-03 12:12:00,
2013-01-03 07:17:00,36.4,33.2,30.23,NE,45,3.0,-999.0,88,0.00,,,0.00,Wunderground v.1.15,2013-01-03 12:17:00,
2013-01-03 07:22:00,36.4,33.2,30.23,NE,45,3.0,-999.0,88,0.00,,,0.00,Wunderground v.1.15,2013-01-03 12:22:00,
2013-01-03 07:27:00,36.3,33.1,30.23,NE,45,3.0,-999.0,88,0.00,,,0.00,Wunderground v.1.15,2013-01-03 12:27:00,
2013-01-03 07:32:00,36.3,33.1,30.23,NE,45,3.0,-999.0,88,0.00,,,0.00,Wunderground v.1.15,2013-01-03 12:32:00,
2013-01-03 07:37:00,36.3,33.1,30.23,NE,45,3.0,-999.0,88,0.00,,,0.00,Wunderground v.1.15,2013-01-03 12:37:00,
2013-01-03 07:42:00,36.3,32.8,30.24,NE,45,4.0,-999.0,87,0.00,,,0.00,Wunderground v.1.15,2013-01-03 12:42:00,
2013-01-03 07:47:00,36.3,32.8,30.24,NE,45,4.0,-999.0,87,0.00,,,0.00,Wunderground v.1.15,2013-01-03 12:47:00,
2013-01-03 07:52:00,36.3,32.8,30.24,NE,45,4.0,-999.0,87,0.00,,,0.00,Wunderground v.1.15,2013-01-03 12:52:00,
2013-01-03 07:57:00,36.2,32.4,30.24,NE,45,4.0,-999.0,86,0.00,,,0.00,Wunderground v.1.15,2013-01-03 12:57:00,
2013-01-03 08:02:00,36.2,32.4,30.24,NE,45,4.0,-999.0,86,0.00,,,0.00,Wunderground v.1.15,2013-01-03 13:02:00,
2013-01-03 08:07:00,36.2,32.4,30.24,NE,45,4.0,-999.0,86,0.00,,,0.00,Wunderground v.1.15,2013-01-03 13:07:00,
2013-01-03 08:12:00,36.1,32.3,30.25,NE,45,4.0,-999.0,86,0.00,,,0.00,Wunderground v.1.15,2013-01-03 13:12:00,
2013-01-03 08:17:00,36.1,32.3,30.25,NE,45,4.0,-999.0,86,0.00,,,0.00,Wunderground v.1.15,2013-01-03 13:17:00,
2013-01-03 08:22:00,36.1,32.3,30.25,NE,45,4.0,-999.0,86,0.00,,,0.00,Wunderground v.1.15,2013-01-03 13:22:00,
2013-01-03 08:27:00,36.1,32.3,30.25,NNE,23,4.0,-999.0,86,0.00,,,0.00,Wunderground v.1.15,2013-01-03 13:27:00,
2013-01-03 08:32:00,36.1,32.3,30.25,NNE,23,4.0,-999.0,86,0.00,,,0.00,Wunderground v.1.15,2013-01-03 13:32:00,
2013-01-03 08:37:00,36.1,32.3,30.25,NNE,23,4.0,-999.0,86,0.00,,,0.00,Wunderground v.1.15,2013-01-03 13:37:00,
2013-01-03 08:42:00,36.1,32.6,30.25,NNE,23,4.0,-999.0,87,0.00,,,0.00,Wunderground v.1.15,2013-01-03 13:42:00,
2013-01-03 08:47:00,36.1,32.6,30.25,NNE,23,4.0,-999.0,87,0.00,,,0.00,Wunderground v.1.15,2013-01-03 13:47:00,
2013-01-03 08:52:00,36.1,32.6,30.25,NNE,23,4.0,-999.0,87,0.00,,,0.00,Wunderground v.1.15,2013-01-03 13:52:00,
2013-01-03 08:57:00,36.1,32.3,30.25,NNE,23,4.0,-999.0,86,0.00,,,0.00,Wunderground v.1.15,2013-01-03 13:57:00,
2013-01-03 09:02:00,36.1,32.3,30.25,NNE,23,4.0,-999.0,86,0.00,,,0.00,Wunderground v.1.15,2013-01-03 14:02:00,
2013-01-03 09:07:00,36.1,32.3,30.25,NNE,23,4.0,-999.0,86,0.00,,,0.00,Wunderground v.1.15,2013-01-03 14:07:00,
2013-01-03 09:12:00,36.2,31.8,30.26,NE,45,4.0,-999.0,84,0.00,,,0.00,Wunderground v.1.15,2013-01-03 14:12:00,
2013-01-03 09:17:00,36.2,31.8,30.26,NE,45,4.0,-999.0,84,0.00,,,0.00,Wunderground v.1.15,2013-01-03 14:17:00,
2013-01-03 09:22:00,36.2,31.8,30.26,NE,45,4.0,-999.0,84,0.00,,,0.00,Wunderground v.1.15,2013-01-03 14:22:00,
2013-01-03 09:27:00,36.2,31.2,30.26,NE,45,6.0,-999.0,82,0.00,,,0.00,Wunderground v.1.15,2013-01-03 14:27:00,
2013-01-03 09:32:00,36.2,31.2,30.26,NE,45,6.0,-999.0,82,0.00,,,0.00,Wunderground v.1.15,2013-01-03 14:32:00,
2013-01-03 09:37:00,36.2,31.2,30.26,NE,45,6.0,-999.0,82,0.00,,,0.00,Wunderground v.1.15,2013-01-03 14:37:00,
2013-01-03 09:42:00,36.3,31.3,30.26,NNE,23,5.0,-999.0,82,0.00,,,0.00,Wunderground v.1.15,2013-01-03 14:42:00,
2013-01-03 09:47:00,36.3,31.3,30.26,NNE,23,5.0,-999.0,82,0.00,,,0.00,Wunderground v.1.15,2013-01-03 14:47:00,
2013-01-03 09:52:00,36.3,31.3,30.26,NNE,23,5.0,-999.0,82,0.00,,,0.00,Wunderground v.1.15,2013-01-03 14:52:00,
2013-01-03 09:57:00,36.5,31.5,30.27,NE,45,4.0,-999.0,82,0.00,,,0.00,Wunderground v.1.15,2013-01-03 14:57:00,
2013-01-03 10:02:00,36.5,31.5,30.27,NE,45,4.0,-999.0,82,0.00,,,0.00,Wunderground v.1.15,2013-01-03 15:02:00,
2013-01-03 10:07:00,36.5,31.5,30.27,NE,45,4.0,-999.0,82,0.00,,,0.00,Wunderground v.1.15,2013-01-03 15:07:00,
2013-01-03 10:12:00,36.7,31.7,30.27,NNE,23,5.0,-999.0,82,0.00,,,0.00,Wunderground v.1.15,2013-01-03 15:12:00,
2013-01-03 10:17:00,36.7,31.7,30.27,NNE,23,5.0,-999.0,82,0.00,,,0.00,Wunderground v.1.15,2013-01-03 15:17:00,
2013-01-03 10:22:00,36.7,31.7,30.27,NNE,23,5.0,-999.0,82,0.00,,,0.00,Wunderground v.1.15,2013-01-03 15:22:00,
2013-01-03 10:27:00,37.0,32.0,30.28,NNE,23,5.0,-999.0,82,0.00,,,0.00,Wunderground v.1.15,2013-01-03 15:27:00,
2013-01-03 10:28:00,36.9,31.9,30.28,NE,44,5.0,5.0,82,0.00,,,0.00,Wunderground v.1.15,2013-01-03 15:28:00,
2013-01-03 10:32:00,37.0,32.0,30.28,NNE,23,5.0,-999.0,82,0.00,,,0.00,Wunderground v.1.15,2013-01-03 15:32:00,
2013-01-03 10:33:00,37.0,31.7,30.28,North,8,6.0,7.0,81,0.00,,,0.00,Wunderground v.1.15,2013-01-03 15:33:00,
2013-01-03 10:37:00,37.0,32.0,30.28,NNE,23,5.0,-999.0,82,0.00,,,0.00,Wunderground v.1.15,2013-01-03 15:37:00,
2013-01-03 10:42:00,37.0,31.7,30.28,NE,45,5.0,-999.0,81,0.00,,,0.00,Wunderground v.1.15,2013-01-03 15:42:00,
2013-01-03 10:47:00,37.0,31.7,30.28,NE,45,5.0,-999.0,81,0.00,,,0.00,Wunderground v.1.15,2013-01-03 15:47:00,
2013-01-03 10:52:00,37.0,31.7,30.28,NE,45,5.0,-999.0,81,0.00,,,0.00,Wunderground v.1.15,2013-01-03 15:52:00,
2013-01-03 10:57:00,37.4,32.1,30.29,NNE,23,5.0,-999.0,81,0.00,,,0.00,Wunderground v.1.15,2013-01-03 15:57:00,
2013-01-03 11:02:00,37.4,32.1,30.29,NNE,23,5.0,-999.0,81,0.00,,,0.00,Wunderground v.1.15,2013-01-03 16:02:00,
2013-01-03 11:07:00,37.4,32.1,30.29,NNE,23,5.0,-999.0,81,0.00,,,0.00,Wunderground v.1.15,2013-01-03 16:07:00,
2013-01-03 11:12:00,37.7,31.8,30.28,NE,45,5.0,-999.0,79,0.00,,,0.00,Wunderground v.1.15,2013-01-03 16:12:00,
2013-01-03 11:17:00,37.7,31.8,30.28,NE,45,5.0,-999.0,79,0.00,,,0.00,Wunderground v.1.15,2013-01-03 16:17:00,
2013-01-03 11:22:00,37.7,31.8,30.28,NE,45,5.0,-999.0,79,0.00,,,0.00,Wunderground v.1.15,2013-01-03 16:22:00,
2013-01-03 11:27:00,38.4,31.8,30.28,NE,45,4.0,-999.0,77,0.00,,,0.00,Wunderground v.1.15,2013-01-03 16:27:00,
2013-01-03 11:32:00,38.4,31.8,30.28,NE,45,4.0,-999.0,77,0.00,,,0.00,Wunderground v.1.15,2013-01-03 16:32:00,
2013-01-03 11:37:00,38.4,31.8,30.28,NE,45,4.0,-999.0,77,0.00,,,0.00,Wunderground v.1.15,2013-01-03 16:37:00,
2013-01-03 11:42:00,39.0,32.7,30.27,NE,45,5.0,-999.0,78,0.00,,,0.00,Wunderground v.1.15,2013-01-03 16:42:00,
2013-01-03 11:47:00,39.0,32.7,30.27,NE,45,5.0,-999.0,78,0.00,,,0.00,Wunderground v.1.15,2013-01-03 16:47:00,
2013-01-03 11:52:00,39.0,32.7,30.27,NE,45,5.0,-999.0,78,0.00,,,0.00,Wunderground v.1.15,2013-01-03 16:52:00,
2013-01-03 11:57:00,39.6,32.7,30.27,ENE,68,4.0,-999.0,76,0.00,,,0.00,Wunderground v.1.15,2013-01-03 16:57:00,
2013-01-03 12:02:00,39.6,32.7,30.27,ENE,68,4.0,-999.0,76,0.00,,,0.00,Wunderground v.1.15,2013-01-03 17:02:00,
2013-01-03 12:07:00,39.6,32.7,30.27,ENE,68,4.0,-999.0,76,0.00,,,0.00,Wunderground v.1.15,2013-01-03 17:07:00,
2013-01-03 12:12:00,40.4,33.1,30.26,ENE,68,3.0,-999.0,75,0.00,,,0.00,Wunderground v.1.15,2013-01-03 17:12:00,
2013-01-03 12:17:00,40.4,33.1,30.26,ENE,68,3.0,-999.0,75,0.00,,,0.00,Wunderground v.1.15,2013-01-03 17:17:00,
2013-01-03 12:22:00,40.4,33.1,30.26,ENE,68,3.0,-999.0,75,0.00,,,0.00,Wunderground v.1.15,2013-01-03 17:22:00,
2013-01-03 12:27:00,41.1,33.1,30.26,ENE,68,4.0,-999.0,73,0.00,,,0.00,Wunderground v.1.15,2013-01-03 17:27:00,
2013-01-03 12:32:00,41.1,33.1,30.26,ENE,68,4.0,-999.0,73,0.00,,,0.00,Wunderground v.1.15,2013-01-03 17:32:00,
2013-01-03 12:37:00,41.1,33.1,30.26,ENE,68,4.0,-999.0,73,0.00,,,0.00,Wunderground v.1.15,2013-01-03 17:37:00,
2013-01-03 12:42:00,41.7,33.0,30.26,ENE,68,4.0,-999.0,71,0.00,,,0.00,Wunderground v.1.15,2013-01-03 17:42:00,
2013-01-03 12:47:00,41.7,33.0,30.26,ENE,68,4.0,-999.0,71,0.00,,,0.00,Wunderground v.1.15,2013-01-03 17:47:00,
2013-01-03 12:52:00,41.7,33.0,30.26,ENE,68,4.0,-999.0,71,0.00,,,0.00,Wunderground v.1.15,2013-01-03 17:52:00,
2013-01-03 12:57:00,41.8,32.4,30.26,NNE,23,5.0,-999.0,69,0.00,,,0.00,Wunderground v.1.15,2013-01-03 17:57:00,
2013-01-03 13:02:00,41.8,32.4,30.26,NNE,23,5.0,-999.0,69,0.00,,,0.00,Wunderground v.1.15,2013-01-03 18:02:00,
2013-01-03 13:07:00,41.8,32.4,30.26,NNE,23,5.0,-999.0,69,0.00,,,0.00,Wunderground v.1.15,2013-01-03 18:07:00,
2013-01-03 13:12:00,41.8,31.3,30.25,NE,45,5.0,-999.0,66,0.00,,,0.00,Wunderground v.1.15,2013-01-03 18:12:00,
2013-01-03 13:17:00,41.8,31.3,30.25,NE,45,5.0,-999.0,66,0.00,,,0.00,Wunderground v.1.15,2013-01-03 18:17:00,
2013-01-03 13:22:00,41.8,31.3,30.25,NE,45,5.0,-999.0,66,0.00,,,0.00,Wunderground v.1.15,2013-01-03 18:22:00,
2013-01-03 13:27:00,42.0,30.7,30.25,NNE,23,6.0,-999.0,64,0.00,,,0.00,Wunderground v.1.15,2013-01-03 18:27:00,
2013-01-03 13:32:00,42.0,30.7,30.25,NNE,23,6.0,-999.0,64,0.00,,,0.00,Wunderground v.1.15,2013-01-03 18:32:00,
2013-01-03 13:37:00,42.0,30.7,30.25,NNE,23,6.0,-999.0,64,0.00,,,0.00,Wunderground v.1.15,2013-01-03 18:37:00,
2013-01-03 13:42:00,42.0,29.9,30.25,NNE,23,6.0,-999.0,62,0.00,,,0.00,Wunderground v.1.15,2013-01-03 18:42:00,
2013-01-03 13:47:00,42.0,29.9,30.25,NNE,23,6.0,-999.0,62,0.00,,,0.00,Wunderground v.1.15,2013-01-03 18:47:00,
2013-01-03 13:52:00,42.0,29.9,30.25,NNE,23,6.0,-999.0,62,0.00,,,0.00,Wunderground v.1.15,2013-01-03 18:52:00,
2013-01-03 13:57:00,42.0,29.5,30.25,NNE,23,6.0,-999.0,61,0.00,,,0.00,Wunderground v.1.15,2013-01-03 18:57:00,
2013-01-03 14:02:00,42.0,29.5,30.25,NNE,23,6.0,-999.0,61,0.00,,,0.00,Wunderground v.1.15,2013-01-03 19:02:00,
2013-01-03 14:07:00,42.0,29.5,30.25,NNE,23,6.0,-999.0,61,0.00,,,0.00,Wunderground v.1.15,2013-01-03 19:07:00,
2013-01-03 14:12:00,42.7,29.8,30.25,NE,45,6.0,-999.0,60,0.00,,,0.00,Wunderground v.1.15,2013-01-03 19:12:00,
2013-01-03 14:17:00,42.7,29.8,30.25,NE,45,6.0,-999.0,60,0.00,,,0.00,Wunderground v.1.15,2013-01-03 19:17:00,
2013-01-03 14:22:00,42.7,29.8,30.25,NE,45,6.0,-999.0,60,0.00,,,0.00,Wunderground v.1.15,2013-01-03 19:22:00,
2013-01-03 14:27:00,43.0,29.2,30.25,NE,45,5.0,-999.0,58,0.00,,,0.00,Wunderground v.1.15,2013-01-03 19:27:00,
2013-01-03 14:32:00,43.0,29.2,30.25,NE,45,5.0,-999.0,58,0.00,,,0.00,Wunderground v.1.15,2013-01-03 19:32:00,
2013-01-03 14:37:00,43.0,29.2,30.25,NE,45,5.0,-999.0,58,0.00,,,0.00,Wunderground v.1.15,2013-01-03 19:37:00,
2013-01-03 14:42:00,44.3,29.6,30.25,ENE,68,2.0,-999.0,56,0.00,,,0.00,Wunderground v.1.15,2013-01-03 19:42:00,
2013-01-03 14:47:00,44.3,29.6,30.25,ENE,68,2.0,-999.0,56,0.00,,,0.00,Wunderground v.1.15,2013-01-03 19:47:00,
2013-01-03 14:52:00,44.3,29.6,30.25,ENE,68,2.0,-999.0,56,0.00,,,0.00,Wunderground v.1.15,2013-01-03 19:52:00,
2013-01-03 14:57:00,44.5,29.3,30.25,ENE,68,3.0,-999.0,55,0.00,,,0.00,Wunderground v.1.15,2013-01-03 19:57:00,
2013-01-03 15:02:00,44.5,29.3,30.25,ENE,68,3.0,-999.0,55,0.00,,,0.00,Wunderground v.1.15,2013-01-03 20:02:00,
2013-01-03 15:07:00,44.5,29.3,30.25,ENE,68,3.0,-999.0,55,0.00,,,0.00,Wunderground v.1.15,2013-01-03 20:07:00,
2013-01-03 15:12:00,44.5,29.8,30.26,NE,45,4.0,-999.0,56,0.00,,,0.00,Wunderground v.1.15,2013-01-03 20:12:00,
2013-01-03 15:17:00,44.5,29.8,30.26,NE,45,4.0,-999.0,56,0.00,,,0.00,Wunderground v.1.15,2013-01-03 20:17:00,
2013-01-03 15:22:00,44.5,29.8,30.26,NE,45,4.0,-999.0,56,0.00,,,0.00,Wunderground v.1.15,2013-01-03 20:22:00,
2013-01-03 15:27:00,44.8,28.7,30.26,NE,45,4.0,-999.0,53,0.00,,,0.00,Wunderground v.1.15,2013-01-03 20:27:00,
2013-01-03 15:32:00,44.8,28.7,30.26,NE,45,4.0,-999.0,53,0.00,,,0.00,Wunderground v.1.15,2013-01-03 20:32:00,
2013-01-03 15:37:00,44.8,28.7,30.26,NE,45,4.0,-999.0,53,0.00,,,0.00,Wunderground v.1.15,2013-01-03 20:37:00,
2013-01-03 15:42:00,44.7,27.7,30.26,NNE,23,6.0,-999.0,51,0.00,,,0.00,Wunderground v.1.15,2013-01-03 20:42:00,
2013-01-03 15:47:00,44.7,27.7,30.26,NNE,23,6.0,-999.0,51,0.00,,,0.00,Wunderground v.1.15,2013-01-03 20:47:00,
2013-01-03 15:52:00,44.7,27.7,30.26,NNE,23,6.0,-999.0,51,0.00,,,0.00,Wunderground v.1.15,2013-01-03 20:52:00,
2013-01-03 15:57:00,44.9,27.4,30.27,NE,45,5.0,-999.0,50,0.00,,,0.00,Wunderground v.1.15,2013-01-03 20:57:00,
2013-01-03 16:02:00,44.9,27.4,30.27,NE,45,5.0,-999.0,50,0.00,,,0.00,Wunderground v.1.15,2013-01-03 21:02:00,
2013-01-03 16:07:00,44.9,27.4,30.27,NE,45,5.0,-999.0,50,0.00,,,0.00,Wunderground v.1.15,2013-01-03 21:07:00,
2013-01-03 16:12:00,45.1,25.0,30.27,NE,45,5.0,-999.0,45,0.00,,,0.00,Wunderground v.1.15,2013-01-03 21:12:00,
2013-01-03 16:17:00,45.1,25.0,30.27,NE,45,5.0,-999.0,45,0.00,,,0.00,Wunderground v.1.15,2013-01-03 21:17:00,
2013-01-03 16:22:00,45.1,25.0,30.27,NE,45,5.0,-999.0,45,0.00,,,0.00,Wunderground v.1.15,2013-01-03 21:22:00,
2013-01-03 16:27:00,45.3,27.2,30.27,NE,45,5.0,-999.0,49,0.00,,,0.00,Wunderground v.1.15,2013-01-03 21:27:00,
2013-01-03 16:32:00,45.3,27.2,30.27,NE,45,5.0,-999.0,49,0.00,,,0.00,Wunderground v.1.15,2013-01-03 21:32:00,
2013-01-03 16:37:00,45.3,27.2,30.27,NE,45,5.0,-999.0,49,0.00,,,0.00,Wunderground v.1.15,2013-01-03 21:37:00,
2013-01-03 16:42:00,45.3,26.7,30.28,NE,45,4.0,-999.0,48,0.00,,,0.00,Wunderground v.1.15,2013-01-03 21:42:00,
2013-01-03 16:47:00,45.3,26.7,30.28,NE,45,4.0,-999.0,48,0.00,,,0.00,Wunderground v.1.15,2013-01-03 21:47:00,
2013-01-03 16:52:00,45.3,26.7,30.28,NE,45,4.0,-999.0,48,0.00,,,0.00,Wunderground v.1.15,2013-01-03 21:52:00,
2013-01-03 16:57:00,45.2,26.7,30.28,ENE,68,3.0,-999.0,48,0.00,,,0.00,Wunderground v.1.15,2013-01-03 21:57:00,
2013-01-03 17:02:00,45.2,26.7,30.28,ENE,68,3.0,-999.0,48,0.00,,,0.00,Wunderground v.1.15,2013-01-03 22:02:00,
2013-01-03 17:07:00,45.2,26.7,30.28,ENE,68,3.0,-999.0,48,0.00,,,0.00,Wunderground v.1.15,2013-01-03 22:07:00,
2013-01-03 17:12:00,44.9,26.9,30.29,ENE,68,2.0,-999.0,49,0.00,,,0.00,Wunderground v.1.15,2013-01-03 22:12:00,
2013-01-03 17:17:00,44.9,26.9,30.29,ENE,68,2.0,-999.0,49,0.00,,,0.00,Wunderground v.1.15,2013-01-03 22:17:00,
2013-01-03 17:22:00,44.9,26.9,30.29,ENE,68,2.0,-999.0,49,0.00,,,0.00,Wunderground v.1.15,2013-01-03 22:22:00,
2013-01-03 17:27:00,44.3,27.3,30.29,ENE,68,1.0,-999.0,51,0.00,,,0.00,Wunderground v.1.15,2013-01-03 22:27:00,
2013-01-03 17:32:00,44.3,27.3,30.29,ENE,68,1.0,-999.0,51,0.00,,,0.00,Wunderground v.1.15,2013-01-03 22:32:00,
2013-01-03 17:37:00,44.3,27.3,30.29,ENE,68,1.0,-999.0,51,0.00,,,0.00,Wunderground v.1.15,2013-01-03 22:37:00,
2013-01-03 17:42:00,42.6,29.3,30.30,NNW,338,1.0,-999.0,59,0.00,,,0.00,Wunderground v.1.15,2013-01-03 22:42:00,
2013-01-03 17:47:00,42.6,29.3,30.30,NNW,338,1.0,-999.0,59,0.00,,,0.00,Wunderground v.1.15,2013-01-03 22:47:00,
2013-01-03 17:52:00,42.6,29.3,30.30,NNW,338,1.0,-999.0,59,0.00,,,0.00,Wunderground v.1.15,2013-01-03 22:52:00,
2013-01-03 17:57:00,39.8,30.5,30.31,NNW,338,2.0,-999.0,69,0.00,,,0.00,Wunderground v.1.15,2013-01-03 22:57:00,
2013-01-03 18:02:00,39.8,30.5,30.31,NNW,338,2.0,-999.0,69,0.00,,,0.00,Wunderground v.1.15,2013-01-03 23:02:00,
2013-01-03 18:07:00,39.8,30.5,30.31,NNW,338,2.0,-999.0,69,0.00,,,0.00,Wunderground v.1.15,2013-01-03 23:07:00,
2013-01-03 18:12:00,37.9,30.0,30.31,NNW,338,0.0,-999.0,73,0.00,,,0.00,Wunderground v.1.15,2013-01-03 23:12:00,
2013-01-03 18:17:00,37.9,30.0,30.31,NNW,338,0.0,-999.0,73,0.00,,,0.00,Wunderground v.1.15,2013-01-03 23:17:00,
2013-01-03 18:22:00,37.9,30.0,30.31,NNW,338,0.0,-999.0,73,0.00,,,0.00,Wunderground v.1.15,2013-01-03 23:22:00,
2013-01-03 18:27:00,36.3,31.0,30.32,N/A,-737280,0.0,-999.0,81,0.00,,,0.00,Wunderground v.1.15,2013-01-03 23:27:00,
2013-01-03 18:32:00,36.3,31.0,30.32,N/A,-737280,0.0,-999.0,81,0.00,,,0.00,Wunderground v.1.15,2013-01-03 23:32:00,
2013-01-03 18:37:00,36.3,31.0,30.32,N/A,-737280,0.0,-999.0,81,0.00,,,0.00,Wunderground v.1.15,2013-01-03 23:37:00,
2013-01-03 18:42:00,35.0,30.4,30.32,N/A,-737280,0.0,-999.0,83,0.00,,,0.00,Wunderground v.1.15,2013-01-03 23:42:00,
2013-01-03 18:47:00,35.0,30.4,30.32,N/A,-737280,0.0,-999.0,83,0.00,,,0.00,Wunderground v.1.15,2013-01-03 23:47:00,
2013-01-03 18:52:00,35.0,30.4,30.32,N/A,-737280,0.0,-999.0,83,0.00,,,0.00,Wunderground v.1.15,2013-01-03 23:52:00,
2013-01-03 18:57:00,34.8,30.8,30.32,North,0,1.0,-999.0,85,0.00,,,0.00,Wunderground v.1.15,2013-01-03 23:57:00,
2013-01-03 19:02:00,34.8,30.8,30.32,North,0,1.0,-999.0,85,0.00,,,0.00,Wunderground v.1.15,2013-01-04 00:02:00,
2013-01-03 19:07:00,34.8,30.8,30.32,North,0,1.0,-999.0,85,0.00,,,0.00,Wunderground v.1.15,2013-01-04 00:07:00,
2013-01-03 19:12:00,34.4,30.1,30.33,SW,225,0.0,-999.0,84,0.00,,,0.00,Wunderground v.1.15,2013-01-04 00:12:00,
2013-01-03 19:17:00,34.4,30.1,30.33,SW,225,0.0,-999.0,84,0.00,,,0.00,Wunderground v.1.15,2013-01-04 00:17:00,
2013-01-03 19:22:00,34.4,30.1,30.33,SW,225,0.0,-999.0,84,0.00,,,0.00,Wunderground v.1.15,2013-01-04 00:22:00,
2013-01-03 19:27:00,33.2,29.2,30.33,SW,225,0.0,-999.0,85,0.00,,,0.00,Wunderground v.1.15,2013-01-04 00:27:00,
2013-01-03 19:32:00,33.2,29.2,30.33,SW,225,0.0,-999.0,85,0.00,,,0.00,Wunderground v.1.15,2013-01-04 00:32:00,
2013-01-03 19:37:00,33.2,29.2,30.33,SW,225,0.0,-999.0,85,0.00,,,0.00,Wunderground v.1.15,2013-01-04 00:37:00,
2013-01-03 19:42:00,32.4,29.0,30.33,SW,225,0.0,-999.0,87,0.00,,,0.00,Wunderground v.1.15,2013-01-04 00:42:00,
2013-01-03 19:47:00,32.4,29.0,30.33,SW,225,0.0,-999.0,87,0.00,,,0.00,Wunderground v.1.15,2013-01-04 00:47:00,
2013-01-03 19:52:00,32.4,29.0,30.33,SW,225,0.0,-999.0,87,0.00,,,0.00,Wunderground v.1.15,2013-01-04 00:52:00,
2013-01-03 19:57:00,31.5,28.4,30.33,N/A,-737280,0.0,-999.0,88,0.00,,,0.00,Wunderground v.1.15,2013-01-04 00:57:00,
2013-01-03 20:02:00,31.5,28.4,30.33,N/A,-737280,0.0,-999.0,88,0.00,,,0.00,Wunderground v.1.15,2013-01-04 01:02:00,
2013-01-03 20:07:00,31.5,28.4,30.33,N/A,-737280,0.0,-999.0,88,0.00,,,0.00,Wunderground v.1.15,2013-01-04 01:07:00,
2013-01-03 20:12:00,32.9,30.6,30.33,NW,315,0.0,-999.0,91,0.00,,,0.00,Wunderground v.1.15,2013-01-04 01:12:00,
2013-01-03 20:17:00,32.9,30.6,30.33,NW,315,0.0,-999.0,91,0.00,,,0.00,Wunderground v.1.15,2013-01-04 01:17:00,
2013-01-03 20:22:00,32.9,30.6,30.33,NW,315,0.0,-999.0,91,0.00,,,0.00,Wunderground v.1.15,2013-01-04 01:22:00,
2013-01-03 20:27:00,31.7,29.4,30.34,SW,225,0.0,-999.0,91,0.00,,,0.00,Wunderground v.1.15,2013-01-04 01:27:00,
2013-01-03 20:32:00,31.7,29.4,30.34,SW,225,0.0,-999.0,91,0.00,,,0.00,Wunderground v.1.15,2013-01-04 01:32:00,
2013-01-03 20:37:00,31.7,29.4,30.34,SW,225,0.0,-999.0,91,0.00,,,0.00,Wunderground v.1.15,2013-01-04 01:37:00,
2013-01-03 20:42:00,33.3,31.2,30.34,ENE,68,1.0,-999.0,92,0.00,,,0.00,Wunderground v.1.15,2013-01-04 01:42:00,
2013-01-03 20:47:00,33.3,31.2,30.34,ENE,68,1.0,-999.0,92,0.00,,,0.00,Wunderground v.1.15,2013-01-04 01:47:00,
2013-01-03 20:52:00,33.3,31.2,30.34,ENE,68,1.0,-999.0,92,0.00,,,0.00,Wunderground v.1.15,2013-01-04 01:52:00,
2013-01-03 20:57:00,33.7,30.8,30.34,North,0,1.0,-999.0,89,0.00,,,0.00,Wunderground v.1.15,2013-01-04 01:57:00,
2013-01-03 21:02:00,33.7,30.8,30.34,North,0,1.0,-999.0,89,0.00,,,0.00,Wunderground v.1.15,2013-01-04 02:02:00,
2013-01-03 21:07:00,33.7,30.8,30.34,North,0,1.0,-999.0,89,0.00,,,0.00,Wunderground v.1.15,2013-01-04 02:07:00,
2013-01-03 21:12:00,32.8,29.9,30.34,North,0,0.0,-999.0,89,0.00,,,0.00,Wunderground v.1.15,2013-01-04 02:12:00,
2013-01-03 21:17:00,32.8,29.9,30.34,North,0,0.0,-999.0,89,0.00,,,0.00,Wunderground v.1.15,2013-01-04 02:17:00,
2013-01-03 21:22:00,32.8,29.9,30.34,North,0,0.0,-999.0,89,0.00,,,0.00,Wunderground v.1.15,2013-01-04 02:22:00,
2013-01-03 21:27:00,31.3,28.4,30.35,West,270,0.0,-999.0,89,0.00,,,0.00,Wunderground v.1.15,2013-01-04 02:27:00,
2013-01-03 21:32:00,31.3,28.4,30.35,West,270,0.0,-999.0,89,0.00,,,0.00,Wunderground v.1.15,2013-01-04 02:32:00,
2013-01-03 21:37:00,31.3,28.4,30.35,West,270,0.0,-999.0,89,0.00,,,0.00,Wunderground v.1.15,2013-01-04 02:37:00,
2013-01-03 21:42:00,32.2,29.9,30.34,East,90,0.0,-999.0,91,0.00,,,0.00,Wunderground v.1.15,2013-01-04 02:42:00,
2013-01-03 21:47:00,32.2,29.9,30.34,East,90,0.0,-999.0,91,0.00,,,0.00,Wunderground v.1.15,2013-01-04 02:47:00,
2013-01-03 21:52:00,32.2,29.9,30.34,East,90,0.0,-999.0,91,0.00,,,0.00,Wunderground v.1.15,2013-01-04 02:52:00,
2013-01-03 21:57:00,32.1,29.2,30.35,ENE,68,0.0,-999.0,89,0.00,,,0.00,Wunderground v.1.15,2013-01-04 02:57:00,
2013-01-03 22:02:00,32.1,29.2,30.35,ENE,68,0.0,-999.0,89,0.00,,,0.00,Wunderground v.1.15,2013-01-04 03:02:00,
2013-01-03 22:07:00,32.1,29.2,30.35,ENE,68,0.0,-999.0,89,0.00,,,0.00,Wunderground v.1.15,2013-01-04 03:07:00,
2013-01-03 22:12:00,30.3,27.7,30.36,SW,225,1.0,-999.0,90,0.00,,,0.00,Wunderground v.1.15,2013-01-04 03:12:00,
2013-01-03 22:17:00,30.3,27.7,30.36,SW,225,1.0,-999.0,90,0.00,,,0.00,Wunderground v.1.15,2013-01-04 03:17:00,
2013-01-03 22:22:00,30.3,27.7,30.36,SW,225,1.0,-999.0,90,0.00,,,0.00,Wunderground v.1.15,2013-01-04 03:22:00,
2013-01-03 22:27:00,29.7,27.7,30.38,SW,225,0.0,-999.0,92,0.00,,,0.00,Wunderground v.1.15,2013-01-04 03:27:00,
2013-01-03 22:32:00,29.7,27.7,30.38,SW,225,0.0,-999.0,92,0.00,,,0.00,Wunderground v.1.15,2013-01-04 03:32:00,
2013-01-03 22:37:00,29.7,27.7,30.38,SW,225,0.0,-999.0,92,0.00,,,0.00,Wunderground v.1.15,2013-01-04 03:37:00,
2013-01-03 22:42:00,29.4,27.6,30.38,SW,225,0.0,-999.0,93,0.00,,,0.00,Wunderground v.1.15,2013-01-04 03:42:00,
2013-01-03 22:47:00,29.4,27.6,30.38,SW,225,0.0,-999.0,93,0.00,,,0.00,Wunderground v.1.15,2013-01-04 03:47:00,
2013-01-03 22:52:00,29.4,27.6,30.38,SW,225,0.0,-999.0,93,0.00,,,0.00,Wunderground v.1.15,2013-01-04 03:52:00,
2013-01-03 22:57:00,29.2,27.4,30.39,SE,135,0.0,-999.0,93,0.00,,,0.00,Wunderground v.1.15,2013-01-04 03:57:00,
2013-01-03 23:02:00,29.2,27.4,30.39,SE,135,0.0,-999.0,93,0.00,,,0.00,Wunderground v.1.15,2013-01-04 04:02:00,
2013-01-03 23:07:00,29.2,27.4,30.39,SE,135,0.0,-999.0,93,0.00,,,0.00,Wunderground v.1.15,2013-01-04 04:07:00,
2013-01-03 23:12:00,28.6,26.8,30.39,WSW,248,0.0,-999.0,93,0.00,,,0.00,Wunderground v.1.15,2013-01-04 04:12:00,
2013-01-03 23:17:00,28.6,26.8,30.39,WSW,248,0.0,-999.0,93,0.00,,,0.00,Wunderground v.1.15,2013-01-04 04:17:00,
2013-01-03 23:22:00,28.6,26.8,30.39,WSW,248,0.0,-999.0,93,0.00,,,0.00,Wunderground v.1.15,2013-01-04 04:22:00,
2013-01-03 23:27:00,28.2,26.7,30.40,N/A,-737280,0.0,-999.0,94,0.00,,,0.00,Wunderground v.1.15,2013-01-04 04:27:00,
2013-01-03 23:32:00,28.2,26.7,30.40,N/A,-737280,0.0,-999.0,94,0.00,,,0.00,Wunderground v.1.15,2013-01-04 04:32:00,
2013-01-03 23:37:00,28.2,26.7,30.40,N/A,-737280,0.0,-999.0,94,0.00,,,0.00,Wunderground v.1.15,2013-01-04 04:37:00,
2013-01-03 23:42:00,27.9,26.4,30.41,SW,225,0.0,-999.0,94,0.00,,,0.00,Wunderground v.1.15,2013-01-04 04:42:00,
2013-01-03 23:47:00,27.9,26.4,30.41,SW,225,0.0,-999.0,94,0.00,,,0.00,Wunderground v.1.15,2013-01-04 04:47:00,
2013-01-03 23:52:00,27.9,26.4,30.41,SW,225,0.0,-999.0,94,0.00,,,0.00,Wunderground v.1.15,2013-01-04 04:52:00,
2013-01-03 23:57:00,27.8,26.6,30.40,SW,225,1.0,-999.0,95,0.00,,,0.00,Wunderground v.1.15,2013-01-04 04:57:00,